createdAt,value
2019-06-20T00:01:52.820Z,97727.78
2019-06-20T00:04:21.015Z,97730.78
2019-06-20T00:06:49.228Z,97741.32
2019-06-20T00:09:17.414Z,97734.33
2019-06-20T00:11:45.622Z,97734.55
2019-06-20T00:14:13.810Z,97755.30
2019-06-20T00:16:42.019Z,97757.98
2019-06-20T00:19:10.216Z,97757.81
2019-06-20T00:21:38.433Z,97755.08
2019-06-20T00:24:06.613Z,97758.55
2019-06-20T00:26:34.819Z,97771.87
2019-06-20T00:29:03.023Z,97778.20
2019-06-20T00:31:31.215Z,97773.16
2019-06-20T00:33:59.414Z,97766.89
2019-06-20T00:36:27.622Z,97767.45
2019-06-20T00:38:55.820Z,97768.66
2019-06-20T00:41:24.020Z,97769.27
2019-06-20T00:43:52.213Z,97775.11
2019-06-20T00:46:20.417Z,97773.69
2019-06-20T00:48:48.614Z,97774.50
2019-06-20T00:51:16.814Z,97761.95
2019-06-20T00:53:45.011Z,97752.39
2019-06-20T00:56:13.222Z,97752.91
2019-06-20T00:58:41.408Z,97745.16
2019-06-20T01:01:09.610Z,97748.48
2019-06-20T01:03:37.807Z,97748.98
2019-06-20T01:06:06.018Z,97748.48
2019-06-20T01:08:34.210Z,97757.03
2019-06-20T01:11:02.433Z,97755.41
2019-06-20T01:13:33.970Z,97747.78
2019-06-20T01:16:00.538Z,97752.50
2019-06-20T01:18:28.741Z,97756.98
2019-06-20T01:20:56.937Z,97753.16
2019-06-20T01:23:25.139Z,97770.91
2019-06-20T01:25:53.343Z,97773.88
2019-06-20T01:28:21.533Z,97775.78
2019-06-20T01:30:49.728Z,97774.72
2019-06-20T01:33:17.928Z,97781.03
2019-06-20T01:35:47.162Z,97772.80
2019-06-20T01:38:15.375Z,97783.39
2019-06-20T01:40:43.733Z,97791.85
2019-06-20T01:43:11.940Z,97782.73
2019-06-20T01:45:40.142Z,97789.89
2019-06-20T01:48:08.351Z,97782.80
2019-06-20T01:50:36.546Z,97777.19
2019-06-20T01:53:04.748Z,97778.49
2019-06-20T01:55:32.949Z,97775.98
2019-06-20T01:58:01.220Z,97783.59
2019-06-20T02:00:38.456Z,97771.43
2019-06-20T02:03:06.666Z,97770.59
2019-06-20T02:05:34.864Z,97767.94
2019-06-20T02:08:03.129Z,97772.16
2019-06-20T02:10:31.285Z,97777.71
2019-06-20T02:12:59.471Z,97782.84
2019-06-20T02:15:27.726Z,97779.78
2019-06-20T02:17:55.880Z,97781.08
2019-06-20T02:20:29.699Z,97769.36
2019-06-20T02:22:57.896Z,97765.95
2019-06-20T02:25:26.088Z,97769.02
2019-06-20T02:27:54.306Z,97757.89
2019-06-20T02:30:22.502Z,97757.89
2019-06-20T02:32:50.711Z,97769.60
2019-06-20T02:35:18.905Z,97765.13
2019-06-20T02:37:47.112Z,97762.11
2019-06-20T02:40:15.312Z,97758.30
2019-06-20T02:42:43.624Z,97758.45
2019-06-20T02:45:11.820Z,97765.02
2019-06-20T02:47:40.030Z,97760.55
2019-06-20T02:50:08.225Z,97767.21
2019-06-20T02:52:36.426Z,97769.32
2019-06-20T02:55:05.085Z,97768.34
2019-06-20T02:57:33.290Z,97773.21
2019-06-20T03:00:01.645Z,97781.22
2019-06-20T03:02:30.077Z,97790.59
2019-06-20T03:04:58.287Z,97785.96
2019-06-20T03:07:26.552Z,97799.80
2019-06-20T03:09:54.755Z,97800.45
2019-06-20T03:12:22.958Z,97801.80
2019-06-20T03:14:51.211Z,97805.92
2019-06-20T03:17:20.203Z,97808.72
2019-06-20T03:19:48.387Z,97812.31
2019-06-20T03:22:16.587Z,97815.05
2019-06-20T03:24:44.791Z,97817.36
2019-06-20T03:27:12.993Z,97824.52
2019-06-20T03:29:41.193Z,97824.52
2019-06-20T03:32:09.387Z,97822.48
2019-06-20T03:34:37.586Z,97824.75
2019-06-20T03:37:05.784Z,97825.36
2019-06-20T03:39:33.988Z,97823.20
2019-06-20T03:42:02.186Z,97827.41
2019-06-20T03:44:31.866Z,97819.01
2019-06-20T03:47:00.163Z,97826.03
2019-06-20T03:49:28.370Z,97827.78
2019-06-20T03:51:56.651Z,97830.43
2019-06-20T03:54:24.953Z,97836.04
2019-06-20T03:56:53.144Z,97846.92
2019-06-20T03:59:21.348Z,97843.20
2019-06-20T04:01:49.542Z,97851.89
2019-06-20T04:04:17.751Z,97854.81
2019-06-20T04:06:45.953Z,97849.70
2019-06-20T04:09:14.155Z,97850.67
2019-06-20T04:11:42.359Z,97854.98
2019-06-20T04:14:10.567Z,97856.56
2019-06-20T04:16:38.759Z,97855.49
2019-06-20T04:19:06.960Z,97854.06
2019-06-20T04:21:35.156Z,97854.06
2019-06-20T04:24:03.368Z,97866.17
2019-06-20T04:26:31.564Z,97875.53
2019-06-20T04:28:59.791Z,97875.53
2019-06-20T04:31:27.972Z,97867.17
2019-06-20T04:33:56.178Z,97872.84
2019-06-20T04:36:24.377Z,97863.89
2019-06-20T04:38:52.599Z,97866.22
2019-06-20T04:41:20.776Z,97868.06
2019-06-20T04:43:48.984Z,97861.52
2019-06-20T04:46:18.812Z,97866.41
2019-06-20T04:48:47.017Z,97859.91
2019-06-20T04:51:15.260Z,97866.10
2019-06-20T04:53:43.466Z,97873.14
2019-06-20T04:56:11.671Z,97873.33
2019-06-20T04:58:39.866Z,97881.67
2019-06-20T05:01:08.059Z,97884.03
2019-06-20T05:03:36.260Z,97889.28
2019-06-20T05:06:04.489Z,97889.87
2019-06-20T05:08:32.656Z,97890.16
2019-06-20T05:11:00.850Z,97890.60
2019-06-20T05:13:29.110Z,97893.40
2019-06-20T05:15:57.260Z,97902.77
2019-06-20T05:18:25.457Z,97901.92
2019-06-20T05:20:53.656Z,97904.02
2019-06-20T05:23:21.860Z,97900.49
2019-06-20T05:25:50.055Z,97901.27
2019-06-20T05:28:18.252Z,97908.19
2019-06-20T05:30:47.322Z,97908.67
2019-06-20T05:33:15.536Z,97912.66
2019-06-20T05:35:43.728Z,97909.67
2019-06-20T05:38:11.916Z,97914.33
2019-06-20T05:40:40.125Z,97913.42
2019-06-20T05:43:08.325Z,97908.14
2019-06-20T05:45:36.529Z,97904.73
2019-06-20T05:48:05.173Z,97913.33
2019-06-20T05:50:33.386Z,97913.63
2019-06-20T05:53:01.614Z,97918.86
2019-06-20T05:55:29.801Z,97918.76
2019-06-20T05:57:57.993Z,97922.58
2019-06-20T06:00:26.215Z,97928.46
2019-06-20T06:02:54.408Z,97921.92
2019-06-20T06:05:22.673Z,97930.84
2019-06-20T06:07:50.808Z,97927.70
2019-06-20T06:10:19.027Z,97936.86
2019-06-20T06:12:47.223Z,97938.23
2019-06-20T06:15:15.704Z,97933.25
2019-06-20T06:17:43.932Z,97935.61
2019-06-20T06:20:12.132Z,97932.85
2019-06-20T06:22:40.408Z,97933.05
2019-06-20T06:25:08.617Z,97936.91
2019-06-20T06:27:36.812Z,97931.48
2019-06-20T06:30:11.347Z,97926.55
2019-06-20T06:32:40.732Z,97934.22
2019-06-20T06:35:09.297Z,97928.77
2019-06-20T06:37:37.541Z,97931.27
2019-06-20T06:40:08.152Z,97930.07
2019-06-20T06:42:36.449Z,97934.16
2019-06-20T06:45:07.970Z,97930.91
2019-06-20T06:47:36.184Z,97935.69
2019-06-20T06:50:07.300Z,97936.34
2019-06-20T06:52:35.610Z,97937.64
2019-06-20T06:55:04.384Z,97941.80
2019-06-20T06:57:32.593Z,97935.58
2019-06-20T07:00:00.801Z,97946.39
2019-06-20T07:02:29.028Z,97952.23
2019-06-20T07:04:57.242Z,97949.54
2019-06-20T07:07:25.443Z,97947.70
2019-06-20T07:09:53.715Z,97956.38
2019-06-20T07:12:21.934Z,97956.97
2019-06-20T07:14:50.144Z,97956.13
2019-06-20T07:17:18.355Z,97954.16
2019-06-20T07:19:46.570Z,97956.00
2019-06-20T07:22:14.782Z,97956.31
2019-06-20T07:24:42.986Z,97961.70
2019-06-20T07:27:11.194Z,97959.72
2019-06-20T07:29:39.426Z,97962.41
2019-06-20T07:32:07.632Z,97963.88
2019-06-20T07:34:35.834Z,97967.65
2019-06-20T07:37:04.038Z,97971.25
2019-06-20T07:39:32.237Z,97974.06
2019-06-20T07:42:00.451Z,97969.34
2019-06-20T07:44:28.661Z,97973.13
2019-06-20T07:46:56.883Z,97977.11
2019-06-20T07:49:25.087Z,97977.30
2019-06-20T07:51:53.298Z,97981.67
2019-06-20T07:54:21.526Z,97975.75
2019-06-20T07:56:49.729Z,97968.15
2019-06-20T07:59:17.949Z,97984.77
2019-06-20T08:01:46.151Z,97987.98
2019-06-20T08:04:14.360Z,97986.65
2019-06-20T08:06:42.566Z,97986.00
2019-06-20T08:09:10.773Z,97984.56
2019-06-20T08:11:39.327Z,97977.86
2019-06-20T08:14:07.528Z,97984.98
2019-06-20T08:16:35.762Z,97990.07
2019-06-20T08:19:04.061Z,97987.30
2019-06-20T08:21:32.237Z,98007.70
2019-06-20T08:24:00.438Z,98001.86
2019-06-20T08:26:28.648Z,97991.39
2019-06-20T08:29:10.298Z,97994.39
2019-06-20T08:31:26.786Z,98011.28
2019-06-20T08:33:55.955Z,98008.54
2019-06-20T08:36:24.919Z,98001.35
2019-06-20T08:38:53.133Z,98012.03
2019-06-20T08:41:21.346Z,98003.50
2019-06-20T08:43:49.544Z,97997.70
2019-06-20T08:46:17.763Z,97994.36
2019-06-20T08:48:45.977Z,97995.48
2019-06-20T08:51:14.777Z,97994.66
2019-06-20T08:53:43.066Z,97992.72
2019-06-20T08:56:11.290Z,98012.92
2019-06-20T08:58:39.480Z,98014.59
2019-06-20T09:03:35.930Z,98017.86
2019-06-20T09:06:04.396Z,98019.48
2019-06-20T09:08:32.600Z,98017.27
2019-06-20T09:11:01.822Z,98011.66
2019-06-20T09:13:30.184Z,98012.22
2019-06-20T09:15:58.785Z,98010.16
2019-06-20T09:18:27.075Z,98009.91
2019-06-20T09:20:55.972Z,98004.24
2019-06-20T09:23:24.272Z,98014.25
2019-06-20T09:25:52.486Z,98017.67
2019-06-20T09:28:20.700Z,98007.50
2019-06-20T09:30:48.970Z,98018.95
2019-06-20T09:33:17.186Z,98018.66
2019-06-20T09:35:45.391Z,98032.75
2019-06-20T09:38:15.185Z,98027.28
2019-06-20T09:40:43.386Z,98037.77
2019-06-20T09:43:26.557Z,98040.52
2019-06-20T09:45:41.529Z,98036.38
2019-06-20T09:48:09.745Z,98042.73
2019-06-20T09:50:37.940Z,98035.84
2019-06-20T09:53:06.152Z,98036.05
2019-06-20T09:55:34.354Z,98034.63
2019-06-20T09:58:02.584Z,98034.70
2019-06-20T10:00:30.820Z,98041.91
2019-06-20T10:02:58.999Z,98041.63
2019-06-20T10:05:27.188Z,98035.08
2019-06-20T10:07:56.671Z,98038.91
2019-06-20T10:10:27.489Z,98035.04
2019-06-20T10:12:55.946Z,98042.27
2019-06-20T10:15:28.408Z,98030.45
2019-06-20T10:17:56.586Z,98031.99
2019-06-20T10:20:24.788Z,98044.03
2019-06-20T10:22:53.472Z,98038.25
2019-06-20T10:25:22.244Z,98041.19
2019-06-20T10:27:51.418Z,98053.04
2019-06-20T10:30:21.944Z,98048.72
2019-06-20T10:32:51.113Z,98046.66
2019-06-20T10:35:19.280Z,98056.98
2019-06-20T10:37:48.502Z,98056.63
2019-06-20T10:40:17.041Z,98058.11
2019-06-20T10:45:08.667Z,98050.41
2019-06-20T10:47:36.875Z,98050.02
2019-06-20T10:50:07.105Z,98052.05
2019-06-20T10:52:35.306Z,98057.77
2019-06-20T10:55:05.402Z,98062.27
2019-06-20T10:57:32.970Z,98071.34
2019-06-20T11:00:01.105Z,98070.80
2019-06-20T11:02:29.312Z,98080.77
2019-06-20T11:04:57.514Z,98081.20
2019-06-20T11:07:25.895Z,98084.55
2019-06-20T11:09:54.106Z,98083.17
2019-06-20T11:12:22.316Z,98078.06
2019-06-20T11:14:50.525Z,98085.09
2019-06-20T11:17:18.736Z,98080.28
2019-06-20T11:19:48.061Z,98088.81
2019-06-20T11:22:16.424Z,98090.05
2019-06-20T11:24:45.174Z,98078.34
2019-06-20T11:27:13.408Z,98085.56
2019-06-20T11:29:41.693Z,98089.15
2019-06-20T11:32:09.895Z,98081.34
2019-06-20T11:34:39.367Z,98078.13
2019-06-20T11:37:07.681Z,98079.27
2019-06-20T11:39:37.314Z,98085.72
2019-06-20T11:42:05.692Z,98081.73
2019-06-20T11:44:35.329Z,98080.17
2019-06-20T11:47:03.839Z,98083.49
2019-06-20T11:49:32.058Z,98081.90
2019-06-20T11:52:00.602Z,98085.86
2019-06-20T11:54:28.808Z,98078.90
2019-06-20T11:56:57.030Z,98081.37
2019-06-20T11:59:25.226Z,98081.95
2019-06-20T12:01:53.423Z,98082.41
2019-06-20T12:04:21.633Z,98077.08
2019-06-20T12:06:49.830Z,98073.88
2019-06-20T12:09:18.039Z,98070.81
2019-06-20T12:11:46.820Z,98068.50
2019-06-20T12:14:15.049Z,98076.75
2019-06-20T12:16:44.337Z,98073.86
2019-06-20T12:19:12.632Z,98070.25
2019-06-20T12:21:41.309Z,98067.16
2019-06-20T12:24:10.548Z,98064.72
2019-06-20T12:26:39.132Z,98070.23
2019-06-20T12:29:08.736Z,98065.60
2019-06-20T12:31:36.936Z,98066.44
2019-06-20T12:34:05.220Z,98077.06
2019-06-20T12:36:33.424Z,98072.52
2019-06-20T12:39:01.969Z,98069.12
2019-06-20T12:41:30.234Z,98062.61
2019-06-20T12:43:58.389Z,98062.30
2019-06-20T12:46:26.586Z,98070.00
2019-06-20T12:48:54.791Z,98067.57
2019-06-20T12:51:22.989Z,98048.56
2019-06-20T12:53:51.187Z,98049.84
2019-06-20T12:56:19.385Z,98048.81
2019-06-20T12:58:48.507Z,98050.84
2019-06-20T13:01:16.779Z,98056.39
2019-06-20T13:03:46.341Z,98042.14
2019-06-20T13:06:14.661Z,98051.16
2019-06-20T13:08:43.627Z,98048.07
2019-06-20T13:11:11.843Z,98042.93
2019-06-20T13:13:40.558Z,98043.80
2019-06-20T13:16:08.824Z,98036.28
2019-06-20T13:18:37.070Z,98040.63
2019-06-20T13:21:05.237Z,98033.98
2019-06-20T13:23:33.426Z,98033.41
2019-06-20T13:26:01.638Z,98036.17
2019-06-20T13:28:29.844Z,98037.44
2019-06-20T13:30:58.046Z,98037.13
2019-06-20T13:33:26.251Z,98045.86
2019-06-20T13:35:54.476Z,98041.67
2019-06-20T13:38:22.669Z,98041.27
2019-06-20T13:40:50.884Z,98037.70
2019-06-20T13:43:19.287Z,98032.74
2019-06-20T13:45:47.580Z,98035.59
2019-06-20T13:48:16.057Z,98038.87
2019-06-20T13:50:45.350Z,98048.64
2019-06-20T13:53:13.635Z,98056.38
2019-06-20T13:55:42.892Z,98047.72
2019-06-20T13:58:11.770Z,98051.60
2019-06-20T14:00:42.796Z,98049.77
2019-06-20T14:03:09.899Z,98059.45
2019-06-20T14:05:38.100Z,98045.70
2019-06-20T14:08:06.449Z,98036.80
2019-06-20T14:10:34.669Z,98036.67
2019-06-20T14:13:18.049Z,98035.16
2019-06-20T14:15:32.787Z,98040.46
2019-06-20T14:18:01.549Z,98036.64
2019-06-20T14:20:29.746Z,98038.18
2019-06-20T14:22:57.944Z,98046.78
2019-06-20T14:25:26.139Z,98040.48
2019-06-20T14:27:54.336Z,98044.64
2019-06-20T14:30:22.551Z,98046.17
2019-06-20T14:32:51.416Z,98034.03
2019-06-20T14:35:19.802Z,98042.44
2019-06-20T14:37:49.550Z,98041.59
2019-06-20T14:40:17.922Z,98045.80
2019-06-20T14:42:47.716Z,98046.07
2019-06-20T14:45:15.533Z,98045.58
2019-06-20T14:47:43.741Z,98041.98
2019-06-20T14:50:11.957Z,98040.36
2019-06-20T14:52:40.290Z,98032.91
2019-06-20T14:55:08.486Z,98038.69
2019-06-20T14:57:36.748Z,98037.23
2019-06-20T15:00:06.476Z,98037.02
2019-06-20T15:02:38.842Z,98032.54
2019-06-20T15:05:07.390Z,98036.52
2019-06-20T15:07:35.588Z,98036.73
2019-06-20T15:10:06.323Z,98030.94
2019-06-20T15:12:34.537Z,98034.41
2019-06-20T15:15:02.903Z,98033.81
2019-06-20T15:17:31.111Z,98038.67
2019-06-20T15:19:59.301Z,98035.78
2019-06-20T15:22:27.530Z,98030.84
2019-06-20T15:24:57.121Z,98032.70
2019-06-20T15:27:25.522Z,98026.95
2019-06-20T15:29:54.424Z,98029.10
2019-06-20T15:32:22.709Z,98030.36
2019-06-20T15:34:51.599Z,98030.64
2019-06-20T15:37:20.304Z,98023.69
2019-06-20T15:39:49.945Z,98027.58
2019-06-20T15:42:18.432Z,98031.46
2019-06-20T15:44:47.279Z,98023.42
2019-06-20T15:47:16.595Z,98026.80
2019-06-20T15:49:44.794Z,98029.09
2019-06-20T15:52:13.059Z,98026.95
2019-06-20T15:54:41.245Z,98026.73
2019-06-20T15:57:09.461Z,98023.91
2019-06-20T15:59:37.651Z,98025.23
2019-06-20T16:02:05.961Z,98028.38
2019-06-20T16:04:34.153Z,98020.95
2019-06-20T16:07:02.366Z,98028.06
2019-06-20T16:09:30.573Z,98038.52
2019-06-20T16:11:58.765Z,98031.05
2019-06-20T16:14:26.957Z,98035.98
2019-06-20T16:16:55.640Z,98043.17
2019-06-20T16:19:23.827Z,98040.37
2019-06-20T16:21:52.115Z,98039.63
2019-06-20T16:24:20.304Z,98044.23
2019-06-20T16:26:48.511Z,98042.78
2019-06-20T16:29:16.703Z,98050.81
2019-06-20T16:31:44.984Z,98052.09
2019-06-20T16:34:13.171Z,98046.66
2019-06-20T16:36:41.399Z,98042.23
2019-06-20T16:39:09.581Z,98049.98
2019-06-20T16:41:37.861Z,98053.52
2019-06-20T16:44:06.133Z,98055.46
2019-06-20T16:46:34.338Z,98051.41
2019-06-20T16:49:02.546Z,98053.16
2019-06-20T16:51:30.793Z,98055.38
2019-06-20T16:53:58.987Z,98063.92
2019-06-20T16:56:27.195Z,98056.16
2019-06-20T16:58:55.408Z,98058.70
2019-06-20T17:01:23.674Z,98069.61
2019-06-20T17:03:51.873Z,98074.34
2019-06-20T17:06:20.070Z,98069.02
2019-06-20T17:08:48.278Z,98077.94
2019-06-20T17:11:16.473Z,98079.91
2019-06-20T17:13:44.681Z,98094.31
2019-06-20T17:16:12.936Z,98093.01
2019-06-20T17:18:41.086Z,98099.12
2019-06-20T17:21:09.290Z,98107.75
2019-06-20T17:23:37.572Z,98108.90
2019-06-20T17:26:06.043Z,98106.45
2019-06-20T17:28:34.274Z,98106.72
2019-06-20T17:31:02.439Z,98112.53
2019-06-20T17:33:30.644Z,98117.78
2019-06-20T17:35:58.850Z,98123.28
2019-06-20T17:38:27.050Z,98121.08
2019-06-20T17:40:55.243Z,98120.25
2019-06-20T17:43:24.023Z,98116.41
2019-06-20T17:45:52.221Z,98117.23
2019-06-20T17:48:20.419Z,98107.83
2019-06-20T17:50:48.625Z,98108.96
2019-06-20T17:53:18.296Z,98114.73
2019-06-20T17:55:46.505Z,98113.34
2019-06-20T17:58:14.704Z,98119.13
2019-06-20T18:00:42.898Z,98120.77
2019-06-20T18:03:11.108Z,98129.32
2019-06-20T18:05:39.304Z,98124.60
2019-06-20T18:08:14.977Z,98121.02
2019-06-20T18:10:37.424Z,98130.12
2019-06-20T18:13:05.625Z,98123.48
2019-06-20T18:15:34.115Z,98123.22
2019-06-20T18:18:02.329Z,98120.69
2019-06-20T18:20:30.682Z,98130.24
2019-06-20T18:22:59.160Z,98129.64
2019-06-20T18:25:27.356Z,98121.58
2019-06-20T18:27:56.504Z,98120.09
2019-06-20T18:30:42.163Z,98112.92
2019-06-20T18:33:10.381Z,98122.01
2019-06-20T18:35:39.007Z,98127.04
2019-06-20T18:38:07.250Z,98128.16
2019-06-20T18:40:35.451Z,98130.91
2019-06-20T18:43:03.669Z,98133.22
2019-06-20T18:45:31.856Z,98125.02
2019-06-20T18:48:00.129Z,98131.30
2019-06-20T18:50:28.322Z,98135.98
2019-06-20T18:52:56.575Z,98138.98
2019-06-20T18:55:24.843Z,98143.05
2019-06-20T18:57:53.085Z,98145.83
2019-06-20T19:00:34.082Z,98152.49
2019-06-20T19:02:53.624Z,98163.20
2019-06-20T19:05:22.013Z,98163.53
2019-06-20T19:07:50.217Z,98157.74
2019-06-20T19:10:22.853Z,98166.81
2019-06-20T19:12:51.122Z,98171.05
2019-06-20T19:15:19.511Z,98172.19
2019-06-20T19:17:47.715Z,98178.50
2019-06-20T19:20:16.682Z,98181.97
2019-06-20T19:22:44.906Z,98184.83
2019-06-20T19:25:13.111Z,98191.27
2019-06-20T19:27:46.632Z,98205.28
2019-06-20T19:30:15.501Z,98198.28
2019-06-20T19:32:43.690Z,98207.97
2019-06-20T19:35:12.787Z,98212.28
2019-06-20T19:37:40.974Z,98213.16
2019-06-20T19:40:09.452Z,98217.42
2019-06-20T19:42:37.716Z,98226.42
2019-06-20T19:45:10.110Z,98224.52
2019-06-20T19:47:38.515Z,98234.13
2019-06-20T19:50:07.988Z,98239.63
2019-06-20T19:52:36.189Z,98238.20
2019-06-20T19:55:04.571Z,98244.70
2019-06-20T19:57:32.774Z,98251.31
2019-06-20T20:00:01.012Z,98255.20
2019-06-20T20:02:29.186Z,98257.02
2019-06-20T20:04:57.404Z,98261.37
2019-06-20T20:07:25.595Z,98267.62
2019-06-20T20:09:53.798Z,98266.34
2019-06-20T20:12:21.996Z,98265.20
2019-06-20T20:14:50.220Z,98261.46
2019-06-20T20:17:18.425Z,98257.34
2019-06-20T20:19:46.649Z,98259.95
2019-06-20T20:22:14.908Z,98264.13
2019-06-20T20:24:43.126Z,98264.38
2019-06-20T20:27:11.335Z,98271.52
2019-06-20T20:29:39.556Z,98267.55
2019-06-20T20:32:07.756Z,98268.55
2019-06-20T20:34:36.003Z,98274.88
2019-06-20T20:37:04.210Z,98275.88
2019-06-20T20:39:32.421Z,98283.27
2019-06-20T20:42:00.622Z,98280.69
2019-06-20T20:44:28.890Z,98286.04
2019-06-20T20:46:57.227Z,98297.91
2019-06-20T20:49:25.430Z,98301.08
2019-06-20T20:51:53.664Z,98301.67
2019-06-20T20:54:21.872Z,98296.64
2019-06-20T20:56:50.083Z,98296.96
2019-06-20T20:59:18.313Z,98294.73
2019-06-20T21:01:46.545Z,98294.94
2019-06-20T21:04:14.753Z,98298.34
2019-06-20T21:06:42.974Z,98296.31
2019-06-20T21:09:11.632Z,98296.58
2019-06-20T21:11:39.816Z,98302.91
2019-06-20T21:14:08.022Z,98305.03
2019-06-20T21:16:36.246Z,98312.34
2019-06-20T21:19:04.461Z,98311.17
2019-06-20T21:21:32.682Z,98312.88
2019-06-20T21:24:00.888Z,98311.35
2019-06-20T21:26:29.113Z,98319.34
2019-06-20T21:28:57.319Z,98318.66
2019-06-20T21:31:25.558Z,98316.81
2019-06-20T21:33:54.638Z,98321.81
2019-06-20T21:36:22.956Z,98323.02
2019-06-20T21:38:51.159Z,98321.05
2019-06-20T21:41:19.365Z,98323.97
2019-06-20T21:43:47.567Z,98320.80
2019-06-20T21:46:15.786Z,98322.64
2019-06-20T21:48:43.983Z,98324.98
2019-06-20T21:51:12.191Z,98324.95
2019-06-20T21:53:40.391Z,98338.59
2019-06-20T21:56:08.613Z,98336.42
2019-06-20T21:58:36.806Z,98338.09
2019-06-20T22:01:05.100Z,98339.33
2019-06-20T22:03:33.300Z,98346.41
2019-06-20T22:06:01.581Z,98348.31
2019-06-20T22:08:29.777Z,98345.37
2019-06-20T22:10:57.990Z,98342.52
2019-06-20T22:13:26.191Z,98349.38
2019-06-20T22:15:54.404Z,98351.29
2019-06-20T22:18:22.603Z,98354.00
2019-06-20T22:20:50.830Z,98344.06
2019-06-20T22:23:19.055Z,98342.92
2019-06-20T22:25:47.261Z,98344.52
2019-06-20T22:28:15.707Z,98344.52
2019-06-20T22:30:49.672Z,98345.02
2019-06-20T22:33:17.912Z,98346.73
2019-06-20T22:35:46.326Z,98348.47
2019-06-20T22:38:14.563Z,98348.47
2019-06-20T22:40:42.752Z,98348.51
2019-06-20T22:43:10.967Z,98356.56
2019-06-20T22:45:39.169Z,98357.63
2019-06-20T22:48:07.386Z,98355.43
2019-06-20T22:50:35.583Z,98355.43
2019-06-20T22:53:03.943Z,98354.91
2019-06-20T22:55:32.135Z,98359.88
2019-06-20T22:58:00.348Z,98357.64
2019-06-20T23:00:30.019Z,98365.00
2019-06-20T23:02:58.221Z,98366.63
2019-06-20T23:05:26.420Z,98374.09
2019-06-20T23:07:54.630Z,98373.25
2019-06-20T23:10:22.831Z,98378.89
2019-06-20T23:12:51.046Z,98392.70
2019-06-20T23:15:19.242Z,98392.25
2019-06-20T23:17:47.459Z,98390.91
2019-06-20T23:20:15.653Z,98393.81
2019-06-20T23:22:43.912Z,98393.81
2019-06-20T23:25:12.059Z,98386.64
2019-06-20T23:27:40.271Z,98383.60
2019-06-20T23:30:08.616Z,98389.10
2019-06-20T23:32:36.898Z,98393.70
2019-06-20T23:35:07.113Z,98395.09
2019-06-20T23:37:35.305Z,98401.70
2019-06-20T23:40:07.393Z,98399.58
2019-06-20T23:42:35.576Z,98394.48
2019-06-20T23:45:04.729Z,98406.03
2019-06-20T23:47:33.017Z,98406.95
2019-06-20T23:50:01.263Z,98408.66
2019-06-20T23:52:31.062Z,98400.26
2019-06-20T23:54:59.263Z,98399.28
2019-06-20T23:57:27.471Z,98393.42
2019-06-20T23:59:55.664Z,98398.70
